Time;durP1;ratioP1;P1;durP2;ratioP2;P2;SDS_P1;SDS_P2;PMS_P1;PMS_P2;Temp;Humidity;BMP_temperature;BMP_pressure;BME280_temperature;BME280_humidity;BME280_pressure;Samples;Min_cycle;Max_cycle;Signal;HPM_P1;HPM_P2
2021/08/31 00:02:34;;;;;;;12.88;5.75;;;;;;;13.01;100.00;94717.88;10356495;28;20029;-75
2021/08/31 00:07:34;;;;;;;15.30;5.70;;;;;;;13.01;100.00;94719.78;10356493;28;20054;-75
2021/08/31 00:12:35;;;;;;;12.60;4.90;;;;;;;12.87;100.00;94717.75;10372625;28;20041;-75
2021/08/31 00:17:36;;;;;;;8.30;6.03;;;;;;;12.93;100.00;94713.09;10372168;28;20049;-75
2021/08/31 00:22:37;;;;;;;10.25;5.63;;;;;;;12.84;100.00;94718.34;10371941;28;20033;-74
2021/08/31 00:27:37;;;;;;;10.52;5.97;;;;;;;12.80;100.00;94720.78;10372397;28;20104;-74
2021/08/31 00:32:38;;;;;;;8.50;5.47;;;;;;;12.83;100.00;94714.81;10373255;28;20116;-74
2021/08/31 00:37:38;;;;;;;8.13;5.27;;;;;;;12.83;100.00;94722.91;10373875;28;20089;-74
2021/08/31 00:42:39;;;;;;;11.10;5.32;;;;;;;12.81;100.00;94724.31;10371762;28;20264;-75
2021/08/31 00:47:39;;;;;;;15.63;5.68;;;;;;;12.78;100.00;94732.97;10372288;28;20079;-75
2021/08/31 00:52:40;;;;;;;7.67;5.30;;;;;;;12.78;100.00;94741.03;10372208;28;20117;-75
2021/08/31 00:57:41;;;;;;;11.05;6.18;;;;;;;12.76;100.00;94738.63;10372213;28;20026;-75
2021/08/31 01:02:42;;;;;;;9.63;4.60;;;;;;;12.70;100.00;94734.41;10371660;28;20474;-75
2021/08/31 01:07:43;;;;;;;8.70;5.00;;;;;;;12.57;100.00;94743.16;10371494;28;20178;-76
2021/08/31 01:12:44;;;;;;;9.68;5.53;;;;;;;12.55;100.00;94742.66;10371541;28;20501;-76
2021/08/31 01:17:44;;;;;;;12.60;6.20;;;;;;;12.53;100.00;94742.94;10369410;28;20030;-75
2021/08/31 01:22:46;;;;;;;9.07;5.07;;;;;;;12.54;100.00;94744.53;10370438;28;20026;-75
2021/08/31 01:27:46;;;;;;;12.40;5.68;;;;;;;12.43;100.00;94745.72;10370645;28;20664;-74
2021/08/31 01:32:47;;;;;;;8.25;5.07;;;;;;;12.51;100.00;94750.50;10371323;28;20022;-74
2021/08/31 01:37:47;;;;;;;7.07;4.57;;;;;;;12.40;100.00;94749.00;10370783;28;20025;-74
2021/08/31 01:42:47;;;;;;;11.82;4.80;;;;;;;12.26;100.00;94756.94;10370533;28;20021;-74
2021/08/31 01:47:48;;;;;;;12.07;5.23;;;;;;;12.26;100.00;94755.03;10370474;28;20030;-74
2021/08/31 01:52:48;;;;;;;11.43;5.37;;;;;;;12.30;100.00;94756.06;10369821;28;20325;-75
2021/08/31 01:57:48;;;;;;;9.87;4.97;;;;;;;12.16;100.00;94751.66;10369653;28;20273;-74
2021/08/31 02:02:49;;;;;;;9.40;4.87;;;;;;;11.94;100.00;94753.69;10369755;28;20033;-74
2021/08/31 02:07:49;;;;;;;8.20;5.10;;;;;;;11.76;100.00;94744.38;10369455;28;20037;-74
2021/08/31 02:12:50;;;;;;;11.40;5.67;;;;;;;11.78;100.00;94749.47;10369093;28;20485;-74
2021/08/31 02:17:50;;;;;;;7.78;4.10;;;;;;;11.75;100.00;94742.75;10369553;28;20272;-74
2021/08/31 02:22:51;;;;;;;10.80;4.10;;;;;;;11.69;100.00;94733.09;10369140;28;20022;-74
2021/08/31 02:27:51;;;;;;;7.80;4.53;;;;;;;11.61;100.00;94753.34;10369403;28;20549;-74
2021/08/31 02:32:52;;;;;;;12.20;4.78;;;;;;;11.51;100.00;94748.03;10369770;28;20609;-74
2021/08/31 02:37:52;;;;;;;11.95;4.40;;;;;;;11.36;100.00;94751.59;10368686;28;20021;-74
2021/08/31 02:42:52;;;;;;;9.80;4.68;;;;;;;11.19;100.00;94754.66;10366325;28;20014;-75
2021/08/31 02:47:53;;;;;;;9.52;5.60;;;;;;;11.02;100.00;94754.97;10349428;28;20022;-75
2021/08/31 02:52:53;;;;;;;10.10;5.13;;;;;;;10.96;100.00;94764.16;10367724;28;20096;-74
2021/08/31 02:57:55;;;;;;;13.67;6.10;;;;;;;10.89;100.00;94764.44;10368097;28;20022;-74
2021/08/31 03:02:56;;;;;;;7.75;4.95;;;;;;;10.94;100.00;94774.41;10368619;28;20390;-75
2021/08/31 03:07:56;;;;;;;9.32;4.60;;;;;;;10.92;100.00;94777.31;10367669;28;20038;-75
2021/08/31 03:12:57;;;;;;;8.03;5.20;;;;;;;10.93;100.00;94776.25;10368114;28;20041;-75
2021/08/31 03:17:57;;;;;;;11.57;5.10;;;;;;;10.87;100.00;94777.38;10367618;28;20087;-75
2021/08/31 03:22:57;;;;;;;6.67;4.13;;;;;;;10.86;100.00;94778.44;10367892;28;20288;-75
2021/08/31 03:27:57;;;;;;;8.33;5.23;;;;;;;10.99;100.00;94789.69;10367796;28;20489;-75
2021/08/31 03:32:58;;;;;;;10.87;5.07;;;;;;;10.92;100.00;94789.97;10367843;28;20030;-75
2021/08/31 03:37:58;;;;;;;7.50;5.25;;;;;;;10.95;100.00;94797.50;10367371;28;20113;-75
2021/08/31 03:42:59;;;;;;;11.10;5.47;;;;;;;10.89;100.00;94803.97;10366641;28;20097;-75
2021/08/31 03:47:59;;;;;;;9.43;5.10;;;;;;;10.92;100.00;94800.75;10349296;28;20092;-76
2021/08/31 03:52:59;;;;;;;12.60;5.53;;;;;;;11.02;100.00;94802.59;10366516;28;20404;-75
2021/08/31 03:58:00;;;;;;;8.43;4.47;;;;;;;11.05;100.00;94805.53;10366684;28;20109;-75
2021/08/31 04:03:01;;;;;;;10.38;6.28;;;;;;;11.07;100.00;94811.44;10365675;28;20022;-75
2021/08/31 04:08:01;;;;;;;10.30;4.90;;;;;;;11.08;100.00;94814.97;10365206;28;20536;-75
2021/08/31 04:13:02;;;;;;;11.48;7.93;;;;;;;11.13;100.00;94811.44;10347171;28;20137;-74
2021/08/31 04:18:03;;;;;;;13.52;5.80;;;;;;;11.24;100.00;94807.63;10369137;28;20084;-74
2021/08/31 04:23:03;;;;;;;10.60;6.05;;;;;;;11.46;100.00;94810.75;10373334;28;20087;-75
2021/08/31 04:28:04;;;;;;;17.37;6.63;;;;;;;11.44;100.00;94810.22;10372517;28;20088;-75
2021/08/31 04:33:05;;;;;;;14.80;6.50;;;;;;;11.48;100.00;94825.81;10372356;28;20026;-75
2021/08/31 04:38:05;;;;;;;12.40;6.82;;;;;;;11.54;100.00;94816.63;10354895;28;20456;-76
2021/08/31 04:43:06;;;;;;;13.27;5.83;;;;;;;11.65;100.00;94820.88;10372291;28;20024;-76
2021/08/31 04:48:06;;;;;;;17.57;6.30;;;;;;;11.74;100.00;94821.13;10372507;28;20030;-76
2021/08/31 04:53:06;;;;;;;13.35;5.72;;;;;;;11.91;100.00;94820.75;10304320;28;20286;-74
2021/08/31 04:58:07;;;;;;;12.60;7.57;;;;;;;12.14;100.00;94830.06;10290523;28;20456;-75
2021/08/31 05:03:07;;;;;;;15.48;6.75;;;;;;;12.56;100.00;94822.41;10289224;28;20043;-75
2021/08/31 05:08:09;;;;;;;11.77;5.60;;;;;;;13.03;100.00;94826.28;10290991;28;20537;-75
2021/08/31 05:13:09;;;;;;;10.57;5.40;;;;;;;13.35;100.00;94819.47;10290632;28;20042;-76
2021/08/31 05:18:10;;;;;;;10.00;4.47;;;;;;;13.54;100.00;94816.03;10290635;28;20027;-75
2021/08/31 05:23:10;;;;;;;16.48;4.55;;;;;;;13.75;100.00;94814.66;10290221;28;20326;-75
2021/08/31 05:28:11;;;;;;;7.93;4.32;;;;;;;14.17;100.00;94804.84;10289486;28;20030;-76
2021/08/31 05:33:11;;;;;;;8.20;5.53;;;;;;;14.76;100.00;94809.09;10290485;28;20049;-76
2021/08/31 05:38:11;;;;;;;7.30;5.20;;;;;;;15.34;100.00;94807.75;10290188;28;20027;-76
2021/08/31 05:43:13;;;;;;;8.67;4.60;;;;;;;15.88;100.00;94803.38;10291356;28;20332;-75
2021/08/31 05:48:13;;;;;;;9.40;4.55;;;;;;;16.58;100.00;94805.84;10290841;28;20073;-75
2021/08/31 05:53:14;;;;;;;9.70;4.27;;;;;;;17.52;100.00;94808.53;10290285;28;20118;-76
2021/08/31 05:58:15;;;;;;;20.42;8.70;;;;;;;18.78;100.00;94806.06;10290556;28;20026;-75
2021/08/31 06:03:15;;;;;;;9.20;4.25;;;;;;;20.01;93.80;94788.41;10290273;28;20027;-75
2021/08/31 06:08:15;;;;;;;8.53;5.00;;;;;;;20.92;84.82;94802.25;10289761;28;20598;-76
2021/08/31 06:13:16;;;;;;;13.93;4.83;;;;;;;22.18;75.99;94803.53;10289825;28;20071;-75
2021/08/31 06:18:16;;;;;;;6.90;4.97;;;;;;;22.93;71.17;94792.34;10289311;28;20086;-76
2021/08/31 06:23:17;;;;;;;8.77;4.37;;;;;;;23.67;61.41;94789.91;10289287;28;20277;-77
2021/08/31 06:28:17;;;;;;;8.02;4.25;;;;;;;23.75;55.82;94790.09;10288026;28;20270;-76
2021/08/31 06:33:17;;;;;;;11.27;5.10;;;;;;;24.13;55.91;94792.16;10289126;28;20066;-76
2021/08/31 06:38:18;;;;;;;10.40;5.80;;;;;;;23.29;58.04;94790.53;10287537;28;20038;-76
2021/08/31 06:43:18;;;;;;;10.95;5.00;;;;;;;22.14;66.89;94793.63;10289376;28;20023;-77
2021/08/31 06:48:19;;;;;;;14.30;6.03;;;;;;;22.16;69.20;94786.69;10292566;28;20065;-76
2021/08/31 06:53:19;;;;;;;10.97;5.67;;;;;;;23.14;62.96;94789.41;10291443;28;20030;-76
2021/08/31 06:58:19;;;;;;;13.07;6.13;;;;;;;24.49;56.19;94792.09;10291605;28;20033;-76
2021/08/31 07:03:20;;;;;;;19.67;7.53;;;;;;;24.45;56.45;94788.50;10289798;28;20019;-76
2021/08/31 07:08:20;;;;;;;10.07;5.57;;;;;;;24.00;55.15;94793.44;10291016;28;20047;-76
2021/08/31 07:13:20;;;;;;;14.03;5.80;;;;;;;24.24;54.98;94800.63;10291131;28;20114;-76
2021/08/31 07:18:21;;;;;;;16.67;6.50;;;;;;;26.04;52.10;94798.44;10291036;28;20026;-76
2021/08/31 07:23:21;;;;;;;18.53;6.03;;;;;;;27.65;45.84;94797.94;10289008;28;20029;-77
2021/08/31 07:28:22;;;;;;;9.90;5.47;;;;;;;28.90;40.08;94797.16;10288479;28;20050;-77
2021/08/31 07:33:22;;;;;;;12.03;5.90;;;;;;;29.95;38.87;94797.34;10288164;28;20027;-77
2021/08/31 07:38:22;;;;;;;16.57;6.10;;;;;;;30.96;37.13;94791.50;10286790;28;20324;-77
2021/08/31 07:43:24;;;;;;;12.77;5.77;;;;;;;31.55;35.68;94792.75;10288630;28;20086;-77
2021/08/31 07:48:25;;;;;;;19.58;7.20;;;;;;;32.17;34.71;94794.66;10287790;28;20286;-77
2021/08/31 07:53:25;;;;;;;21.83;5.80;;;;;;;32.65;33.34;94792.19;10291320;28;20038;-77
2021/08/31 07:58:25;;;;;;;13.80;4.87;;;;;;;32.93;32.25;94782.69;10295871;28;20030;-77
2021/08/31 08:03:26;;;;;;;14.20;5.20;;;;;;;33.02;32.69;94785.78;10295208;28;20034;-77
2021/08/31 08:08:26;;;;;;;12.93;4.93;;;;;;;33.63;30.64;94788.91;10294816;28;20193;-77
2021/08/31 08:13:27;;;;;;;16.98;5.68;;;;;;;33.61;30.01;94780.19;10295453;28;20038;-77
2021/08/31 08:18:27;;;;;;;15.90;5.50;;;;;;;33.35;30.12;94763.88;10294819;28;20403;-77
2021/08/31 08:23:28;;;;;;;15.50;4.88;;;;;;;32.78;30.96;94764.63;10295149;28;20022;-77
2021/08/31 08:28:28;;;;;;;11.93;4.82;;;;;;;31.96;32.68;94755.94;10294683;28;20030;-77
2021/08/31 08:33:32;;;;;;;13.73;4.70;;;;;;;33.39;30.42;94755.44;10294514;28;20049;-77
2021/08/31 08:38:33;;;;;;;10.85;4.53;;;;;;;34.89;29.48;94759.59;10292935;28;20170;-77
2021/08/31 08:43:35;;;;;;;11.27;4.65;;;;;;;35.32;29.16;94743.13;10294247;28;20513;-78
2021/08/31 08:48:36;;;;;;;5.75;3.03;;;;;;;35.89;26.56;94738.16;10294095;28;20514;-76
2021/08/31 08:53:36;;;;;;;10.05;3.35;;;;;;;33.80;28.30;94737.69;10293579;28;20031;-76
2021/08/31 08:58:37;;;;;;;6.70;2.93;;;;;;;30.98;33.21;94733.63;10293274;28;20027;-76
2021/08/31 09:03:39;;;;;;;10.23;3.97;;;;;;;30.79;33.32;94735.69;10292272;28;20023;-76
2021/08/31 09:08:53;;;;;;;6.35;3.80;;;;;;;32.50;30.88;94728.38;10292793;28;20051;-75
2021/08/31 09:14:15;;;;;;;7.45;3.42;;;;;;;33.24;29.06;94720.66;10292753;28;20450;-76
2021/08/31 09:19:16;;;;;;;8.82;2.83;;;;;;;33.40;29.28;94712.44;10292687;28;20035;-76
2021/08/31 09:24:19;;;;;;;6.95;2.58;;;;;;;32.81;29.09;94719.28;10291119;28;20026;-76
2021/08/31 09:29:22;;;;;;;6.88;3.42;;;;;;;31.43;32.11;94713.50;10292344;28;20042;-76
2021/08/31 09:34:43;;;;;;;5.03;3.17;;;;;;;31.12;30.97;94710.53;10291939;28;20031;-76
2021/08/31 09:39:44;;;;;;;7.85;3.72;;;;;;;30.31;34.38;94708.56;10290397;28;20026;-77
2021/08/31 09:44:49;;;;;;;6.47;3.60;;;;;;;30.24;35.16;94708.56;10292023;28;20606;-77
2021/08/31 09:49:49;;;;;;;5.38;3.58;;;;;;;29.32;33.85;94703.56;10292133;28;20027;-77
2021/08/31 09:54:50;;;;;;;8.77;3.60;;;;;;;31.30;31.50;94682.63;10290732;28;20526;-77
2021/08/31 09:59:51;;;;;;;6.47;3.60;;;;;;;32.26;32.50;94684.94;10290872;28;20058;-77
2021/08/31 10:04:53;;;;;;;7.43;4.65;;;;;;;32.82;29.88;94681.84;10289255;28;20502;-77
2021/08/31 10:09:53;;;;;;;10.27;3.95;;;;;;;35.74;28.33;94665.03;10290858;28;20062;-76
2021/08/31 10:14:56;;;;;;;5.10;2.97;;;;;;;38.02;24.10;94664.63;10290645;28;20042;-75
2021/08/31 10:20:00;;;;;;;5.32;2.53;;;;;;;39.89;23.60;94646.19;10290137;28;20458;-76
2021/08/31 10:25:00;;;;;;;10.05;2.63;;;;;;;40.21;23.08;94634.81;10289968;28;20109;-77
2021/08/31 10:30:13;;;;;;;5.18;3.13;;;;;;;41.64;20.24;94632.94;10290365;28;20565;-77
2021/08/31 10:35:28;;;;;;;2.75;1.90;;;;;;;40.98;21.20;94628.09;10288553;28;20035;-77
2021/08/31 10:40:44;;;;;;;6.22;2.60;;;;;;;38.94;21.48;94623.13;10289544;28;20026;-76
2021/08/31 10:45:53;;;;;;;4.55;2.10;;;;;;;40.28;20.44;94621.19;10289475;28;20136;-76
2021/08/31 10:51:01;;;;;;;4.13;2.33;;;;;;;40.85;20.93;94622.63;10289391;28;20177;-76
2021/08/31 10:56:22;;;;;;;2.88;2.08;;;;;;;41.12;19.59;94609.69;10287661;28;20118;-76
2021/08/31 11:01:27;;;;;;;8.07;2.53;;;;;;;40.30;20.95;94607.44;10288488;28;20031;-76
2021/08/31 11:06:30;;;;;;;4.90;2.50;;;;;;;39.24;21.04;94597.47;10288281;28;20149;-76
2021/08/31 11:11:31;;;;;;;5.55;2.53;;;;;;;38.34;22.10;94610.16;10288326;28;20039;-76
2021/08/31 11:16:38;;;;;;;4.82;2.53;;;;;;;38.05;23.03;94602.75;10289155;28;20022;-77
2021/08/31 11:21:46;;;;;;;6.10;2.85;;;;;;;34.61;27.76;94601.03;10288951;28;20038;-77
2021/08/31 11:26:47;;;;;;;4.35;2.67;;;;;;;32.68;29.42;94604.88;10291860;28;20021;-77
2021/08/31 11:31:47;;;;;;;12.05;4.25;;;;;;;30.69;31.96;94595.06;10297150;28;20037;-76
2021/08/31 11:36:48;;;;;;;4.20;3.10;;;;;;;30.17;32.44;94604.06;10297083;28;20061;-76
2021/08/31 11:41:48;;;;;;;7.50;3.07;;;;;;;29.52;33.75;94593.16;10296672;28;20370;-76
2021/08/31 11:46:51;;;;;;;11.48;3.00;;;;;;;28.40;34.47;94598.66;10296196;28;20732;-76
2021/08/31 11:51:51;;;;;;;6.47;3.55;;;;;;;27.72;34.17;94599.19;10294724;28;20031;-76
2021/08/31 11:56:56;;;;;;;5.75;3.08;;;;;;;27.08;36.42;94589.31;10294897;28;20450;-76
2021/08/31 12:02:18;;;;;;;8.75;3.55;;;;;;;27.09;37.10;94588.16;10295582;28;20034;-76
2021/08/31 12:07:20;;;;;;;10.95;3.78;;;;;;;27.00;38.07;94582.19;10295467;28;20039;-76
2021/08/31 12:12:21;;;;;;;7.30;4.22;;;;;;;27.00;39.72;94568.41;10295615;28;20070;-76
2021/08/31 12:17:30;;;;;;;7.45;3.53;;;;;;;27.09;38.37;94552.28;10295055;28;20061;-76
2021/08/31 12:22:37;;;;;;;14.60;3.75;;;;;;;27.03;37.27;94559.34;10294908;28;20034;-76
2021/08/31 12:27:48;;;;;;;7.00;3.63;;;;;;;26.84;36.29;94554.09;10294505;28;20022;-76
2021/08/31 12:32:57;;;;;;;11.50;3.22;;;;;;;26.71;38.11;94551.63;10294591;28;20354;-76
2021/08/31 12:38:08;;;;;;;6.45;3.33;;;;;;;26.77;36.62;94539.06;10292703;28;20027;-76
2021/08/31 12:43:11;;;;;;;7.30;3.13;;;;;;;26.92;36.73;94536.41;10294162;28;20082;-76
2021/08/31 12:48:12;;;;;;;6.57;3.00;;;;;;;26.94;36.50;94532.09;10294198;28;20055;-76
2021/08/31 12:53:12;;;;;;;7.97;3.30;;;;;;;26.81;36.89;94524.53;10293589;28;20470;-76
2021/08/31 12:58:26;;;;;;;4.73;2.87;;;;;;;26.77;39.32;94525.28;10293460;28;20780;-76
2021/08/31 13:03:30;;;;;;;4.85;3.17;;;;;;;26.62;42.81;94529.06;10292319;28;20026;-76
2021/08/31 13:08:34;;;;;;;22.90;4.82;;;;;;;26.54;37.66;94528.22;10293677;28;20042;-76
2021/08/31 13:13:34;;;;;;;9.10;3.28;;;;;;;26.65;37.89;94527.50;10292863;28;20170;-76
2021/08/31 13:18:34;;;;;;;5.90;3.50;;;;;;;26.44;38.39;94515.94;10291637;28;20146;-77
2021/08/31 13:23:35;;;;;;;5.60;3.17;;;;;;;26.27;37.99;94513.81;10292796;28;20384;-76
2021/08/31 13:28:35;;;;;;;7.57;3.23;;;;;;;26.13;38.44;94517.22;10292782;28;20522;-75
2021/08/31 13:33:35;;;;;;;7.63;3.10;;;;;;;25.72;38.27;94515.19;10292091;28;20057;-76
2021/08/31 13:38:36;;;;;;;8.77;3.47;;;;;;;25.82;39.05;94522.00;10291666;28;20506;-75
2021/08/31 13:43:37;;;;;;;8.38;2.85;;;;;;;25.92;37.08;94517.78;10291451;28;20027;-76
2021/08/31 13:48:38;;;;;;;4.53;2.88;;;;;;;26.02;36.95;94528.13;10291149;28;20027;-76
2021/08/31 13:53:38;;;;;;;8.82;2.90;;;;;;;25.95;41.13;94533.53;10290836;28;20034;-76
2021/08/31 13:58:38;;;;;;;8.77;4.20;;;;;;;25.94;40.52;94526.44;10291140;28;20023;-76
2021/08/31 14:03:39;;;;;;;7.60;2.67;;;;;;;25.79;39.12;94530.19;10291021;28;20026;-76
2021/08/31 14:08:40;;;;;;;4.40;2.70;;;;;;;25.73;38.47;94516.78;10290380;28;20051;-76
2021/08/31 14:13:41;;;;;;;6.38;2.65;;;;;;;25.50;38.67;94522.41;10290483;28;20486;-76
2021/08/31 14:18:45;;;;;;;6.90;2.80;;;;;;;25.47;39.40;94525.13;10290455;28;20081;-77
2021/08/31 14:23:45;;;;;;;5.45;2.85;;;;;;;25.23;46.16;94529.91;10290316;28;20098;-77
2021/08/31 14:28:45;;;;;;;7.33;3.03;;;;;;;25.07;43.63;94528.09;10290089;28;20469;-76
2021/08/31 14:33:46;;;;;;;6.57;2.80;;;;;;;25.19;43.20;94529.06;10286971;28;20124;-76
2021/08/31 14:38:46;;;;;;;3.73;2.30;;;;;;;25.32;45.43;94524.13;10286779;28;20114;-76
2021/08/31 14:43:46;;;;;;;6.87;2.60;;;;;;;25.18;44.29;94532.97;10288173;28;20070;-76
2021/08/31 14:48:47;;;;;;;7.20;2.73;;;;;;;25.29;46.15;94519.38;10288223;28;20037;-76
2021/08/31 14:53:47;;;;;;;3.27;2.23;;;;;;;25.38;43.02;94522.66;10287627;28;20022;-76
2021/08/31 14:58:47;;;;;;;3.70;2.47;;;;;;;25.34;44.61;94519.06;10287683;28;20023;-76
2021/08/31 15:03:49;;;;;;;6.37;2.33;;;;;;;25.31;44.00;94519.78;10286498;28;20060;-76
2021/08/31 15:08:49;;;;;;;5.95;2.50;;;;;;;25.16;44.07;94521.53;10287454;28;20062;-76
2021/08/31 15:13:50;;;;;;;2.95;2.38;;;;;;;24.96;43.71;94520.88;10287239;28;20043;-76
2021/08/31 15:18:51;;;;;;;7.87;3.03;;;;;;;24.74;45.17;94518.59;10286913;28;20034;-75
2021/08/31 15:23:53;;;;;;;5.63;2.28;;;;;;;24.51;47.46;94517.81;10287607;28;20018;-76
2021/08/31 15:28:57;;;;;;;9.80;3.60;;;;;;;24.43;47.03;94525.13;10286951;28;20136;-76
2021/08/31 15:33:59;;;;;;;6.00;2.75;;;;;;;24.32;47.44;94514.00;10286810;28;20139;-76
2021/08/31 15:39:00;;;;;;;6.45;3.75;;;;;;;24.32;47.98;94524.97;10285647;28;20031;-76
2021/08/31 15:44:02;;;;;;;7.70;3.40;;;;;;;24.32;49.33;94522.25;10285963;28;20446;-76
2021/08/31 15:49:06;;;;;;;10.18;3.50;;;;;;;24.08;45.83;94534.34;10285305;28;20027;-76
2021/08/31 15:54:07;;;;;;;5.32;2.70;;;;;;;23.92;48.19;94526.22;10286564;28;20483;-76
2021/08/31 15:59:08;;;;;;;3.97;2.30;;;;;;;23.77;47.13;94530.63;10286704;28;20038;-75
2021/08/31 16:04:08;;;;;;;5.13;2.60;;;;;;;23.59;47.79;94530.28;10285955;28;20023;-76
2021/08/31 16:09:09;;;;;;;7.50;2.73;;;;;;;23.44;45.71;94534.66;10286391;28;20089;-76
2021/08/31 16:14:09;;;;;;;8.40;2.57;;;;;;;23.29;44.99;94538.28;10290772;28;20074;-76
2021/08/31 16:19:09;;;;;;;6.27;2.00;;;;;;;23.15;42.67;94534.09;10292486;28;20274;-76
2021/08/31 16:24:10;;;;;;;9.57;2.70;;;;;;;23.05;42.51;94540.09;10293931;28;20482;-76
2021/08/31 16:29:12;;;;;;;10.50;2.55;;;;;;;22.86;45.06;94543.59;10292546;28;20065;-76
2021/08/31 16:34:13;;;;;;;10.55;3.30;;;;;;;22.51;45.80;94539.66;10291974;28;20026;-76
2021/08/31 16:39:14;;;;;;;5.00;3.17;;;;;;;22.26;44.01;94544.47;10292553;28;20030;-76
2021/08/31 16:44:14;;;;;;;8.25;3.28;;;;;;;22.05;47.21;94550.22;10292464;28;20019;-76
2021/08/31 16:49:14;;;;;;;6.27;2.50;;;;;;;21.86;48.54;94553.59;10292684;28;20037;-76
2021/08/31 16:54:15;;;;;;;12.33;2.77;;;;;;;21.76;47.65;94554.13;10292012;28;20034;-76
2021/08/31 16:59:18;;;;;;;4.32;2.42;;;;;;;21.40;49.39;94559.34;10291346;28;20034;-76
2021/08/31 17:04:18;;;;;;;5.03;2.58;;;;;;;21.32;46.55;94565.72;10291065;28;20019;-76
2021/08/31 17:09:18;;;;;;;5.40;2.30;;;;;;;21.17;46.45;94567.28;10290892;28;20058;-76
2021/08/31 17:14:19;;;;;;;4.30;2.43;;;;;;;21.07;47.67;94575.94;10289740;28;20051;-76
2021/08/31 17:19:19;;;;;;;6.07;2.90;;;;;;;20.86;50.18;94593.28;10290075;28;20031;-76
2021/08/31 17:24:19;;;;;;;12.87;2.80;;;;;;;20.81;50.05;94590.75;10290728;28;20033;-76
2021/08/31 17:29:20;;;;;;;9.82;3.75;;;;;;;20.65;51.66;94610.53;10291740;28;20065;-76
2021/08/31 17:34:21;;;;;;;5.47;3.10;;;;;;;20.76;57.39;94619.13;10290646;28;20110;-76
2021/08/31 17:39:22;;;;;;;9.82;4.25;;;;;;;20.52;59.95;94627.25;10290523;28;20285;-75
2021/08/31 17:44:22;;;;;;;8.80;3.87;;;;;;;20.52;65.26;94633.50;10290822;28;20026;-76
2021/08/31 17:49:22;;;;;;;10.40;4.43;;;;;;;20.38;65.70;94646.66;10290289;28;20282;-75
2021/08/31 17:54:25;;;;;;;10.57;4.07;;;;;;;20.34;64.96;94657.44;10289897;28;20030;-75
2021/08/31 17:59:25;;;;;;;11.43;4.53;;;;;;;20.26;72.12;94667.34;10289851;28;20101;-76
2021/08/31 18:04:25;;;;;;;15.20;5.03;;;;;;;20.07;79.68;94672.50;10289851;28;20086;-75
2021/08/31 18:09:26;;;;;;;13.50;5.87;;;;;;;19.98;79.78;94686.19;10288752;28;20061;-75
2021/08/31 18:14:26;;;;;;;16.03;6.17;;;;;;;19.86;85.04;94694.34;10289537;28;20486;-76
2021/08/31 18:19:27;;;;;;;16.67;5.43;;;;;;;19.66;87.30;94698.63;10289021;28;20061;-75
2021/08/31 18:24:27;;;;;;;11.00;5.43;;;;;;;19.47;91.88;94702.59;10287786;28;20333;-75
2021/08/31 18:29:27;;;;;;;15.18;5.57;;;;;;;19.37;92.79;94713.88;10286391;28;20035;-74
2021/08/31 18:34:28;;;;;;;9.40;4.93;;;;;;;19.27;95.07;94710.41;10286656;28;20478;-76
2021/08/31 18:39:28;;;;;;;24.43;4.97;;;;;;;19.12;95.61;94719.94;10288109;28;20033;-75
2021/08/31 18:44:29;;;;;;;13.57;5.80;;;;;;;19.08;95.16;94719.00;10286348;28;20113;-76
2021/08/31 18:49:29;;;;;;;18.98;6.75;;;;;;;19.05;95.49;94716.16;10288238;28;20034;-75
2021/08/31 18:54:30;;;;;;;17.38;5.25;;;;;;;19.00;95.08;94725.28;10287773;28;20502;-77
2021/08/31 18:59:32;;;;;;;21.23;6.45;;;;;;;19.10;94.55;94729.56;10286610;28;20042;-75
2021/08/31 19:04:34;;;;;;;15.10;6.60;;;;;;;19.02;100.00;94733.94;10309823;28;20026;-75
2021/08/31 19:09:36;;;;;;;18.00;6.07;;;;;;;18.96;100.00;94735.22;10284514;28;20174;-76
2021/08/31 19:14:36;;;;;;;11.68;6.28;;;;;;;18.72;100.00;94728.38;10296354;28;20037;-76
2021/08/31 19:19:37;;;;;;;15.50;6.67;;;;;;;18.64;100.00;94728.41;10288240;28;20347;-76
2021/08/31 19:24:37;;;;;;;19.40;7.85;;;;;;;18.57;100.00;94727.00;10288253;28;20533;-75
2021/08/31 19:29:40;;;;;;;18.43;7.63;;;;;;;18.65;100.00;94732.75;10287602;28;20039;-75
2021/08/31 19:34:41;;;;;;;17.85;7.82;;;;;;;18.69;100.00;94728.25;10287415;28;20077;-75
2021/08/31 19:39:41;;;;;;;20.48;8.40;;;;;;;18.63;100.00;94727.63;10287513;28;20089;-76
2021/08/31 19:44:41;;;;;;;15.53;9.43;;;;;;;18.51;100.00;94724.78;10287425;28;20033;-75
2021/08/31 19:49:42;;;;;;;14.20;8.60;;;;;;;18.47;100.00;94721.91;10293231;28;20846;-76
2021/08/31 19:54:42;;;;;;;12.63;9.10;;;;;;;18.35;100.00;94719.03;10291427;28;20560;-75
2021/08/31 19:59:42;;;;;;;15.82;9.00;;;;;;;18.21;100.00;94717.31;10295404;28;20371;-75
2021/08/31 20:04:44;;;;;;;17.30;9.00;;;;;;;18.17;100.00;94720.97;10294798;28;20484;-76
2021/08/31 20:09:45;;;;;;;12.57;9.23;;;;;;;18.11;100.00;94723.06;10328062;28;20304;-75
2021/08/31 20:14:45;;;;;;;14.53;8.90;;;;;;;18.06;100.00;94728.69;10334850;28;20084;-76
2021/08/31 20:19:46;;;;;;;15.67;7.57;;;;;;;18.03;100.00;94727.41;10329948;28;20421;-76
2021/08/31 20:24:46;;;;;;;9.48;6.22;;;;;;;17.77;100.00;94730.88;10294451;28;20034;-76
2021/08/31 20:29:47;;;;;;;22.03;9.73;;;;;;;17.72;100.00;94738.38;10294337;28;20031;-76
2021/08/31 20:34:48;;;;;;;15.65;6.60;;;;;;;17.68;100.00;94740.13;10293972;28;20482;-76
2021/08/31 20:39:48;;;;;;;12.63;6.32;;;;;;;17.56;100.00;94741.56;10293164;28;20034;-76
2021/08/31 20:44:48;;;;;;;11.27;5.17;;;;;;;17.49;100.00;94743.94;10293969;28;20031;-76
2021/08/31 20:49:49;;;;;;;11.07;4.73;;;;;;;17.42;100.00;94741.69;10293677;28;20031;-76
2021/08/31 20:54:49;;;;;;;8.83;5.43;;;;;;;17.48;100.00;94750.50;10293920;28;20031;-77
2021/08/31 20:59:50;;;;;;;10.80;6.07;;;;;;;17.47;100.00;94759.78;10292484;28;20041;-76
2021/08/31 21:04:50;;;;;;;12.30;5.73;;;;;;;17.41;100.00;94763.75;10292883;28;20030;-76
2021/08/31 21:09:51;;;;;;;8.33;5.23;;;;;;;17.34;100.00;94768.84;10315974;28;20065;-76
2021/08/31 21:14:51;;;;;;;11.30;4.70;;;;;;;17.14;100.00;94768.31;10333006;28;20311;-76
2021/08/31 21:19:51;;;;;;;12.83;5.63;;;;;;;17.02;100.00;94781.66;10331409;28;20029;-76
2021/08/31 21:24:52;;;;;;;10.83;4.67;;;;;;;17.06;100.00;94783.44;10291318;28;20686;-76
2021/08/31 21:29:52;;;;;;;10.77;4.40;;;;;;;16.95;100.00;94787.53;10290640;28;20274;-76
2021/08/31 21:34:52;;;;;;;6.67;3.90;;;;;;;16.86;100.00;94787.47;10292115;28;20035;-75
2021/08/31 21:39:53;;;;;;;11.50;4.33;;;;;;;16.87;100.00;94783.66;10291636;28;20278;-75
2021/08/31 21:44:53;;;;;;;8.13;4.63;;;;;;;16.86;100.00;94800.25;10289342;28;20658;-75
2021/08/31 21:49:54;;;;;;;8.67;3.90;;;;;;;16.78;100.00;94795.59;10290486;28;20548;-76
2021/08/31 21:54:54;;;;;;;5.60;3.75;;;;;;;16.68;100.00;94791.22;10291618;28;20486;-76
2021/08/31 21:59:54;;;;;;;7.13;4.23;;;;;;;16.67;100.00;94797.75;10290197;28;20027;-75
2021/08/31 22:04:55;;;;;;;8.30;5.43;;;;;;;16.65;100.00;94798.06;10290899;28;20182;-75
2021/08/31 22:09:55;;;;;;;13.60;4.50;;;;;;;16.62;100.00;94804.13;10314125;28;20053;-75
2021/08/31 22:14:56;;;;;;;7.50;4.70;;;;;;;16.51;100.00;94808.97;10330325;28;20646;-75
2021/08/31 22:19:56;;;;;;;12.07;5.57;;;;;;;16.46;100.00;94803.66;10329671;28;20284;-75
2021/08/31 22:24:57;;;;;;;6.70;5.20;;;;;;;16.37;100.00;94805.53;10329257;28;20037;-75
2021/08/31 22:29:58;;;;;;;9.10;4.63;;;;;;;16.26;100.00;94801.47;10329777;28;20108;-75
2021/08/31 22:34:58;;;;;;;9.65;5.05;;;;;;;16.06;100.00;94804.34;10330022;28;20308;-76
2021/08/31 22:39:58;;;;;;;10.10;4.97;;;;;;;16.04;100.00;94805.75;10329643;28;20058;-76
2021/08/31 22:44:59;;;;;;;9.07;4.53;;;;;;;15.99;100.00;94801.25;10329450;28;20026;-76
2021/08/31 22:49:59;;;;;;;8.40;4.10;;;;;;;15.93;100.00;94793.53;10329297;28;20277;-76
2021/08/31 22:55:00;;;;;;;9.02;4.22;;;;;;;15.85;100.00;94798.56;10329424;28;20297;-76
2021/08/31 23:00:00;;;;;;;7.00;4.80;;;;;;;15.79;100.00;94791.66;10329868;28;20113;-78
2021/08/31 23:05:03;;;;;;;6.70;5.17;;;;;;;15.76;100.00;94792.22;10330044;28;20053;-76